Time;durP1;ratioP1;P1;durP2;ratioP2;P2;SDS_P1;SDS_P2;PMS_P1;PMS_P2;Temp;Humidity;BMP_temperature;BMP_pressure;BME280_temperature;BME280_humidity;BME280_pressure;Samples;Min_cycle;Max_cycle;Signal;HPM_P1;HPM_P2
2023/04/15 00:03:13;;;;;;;10.93;8.90;;;13.70;99.40;;;;;;12794011;23;20173;-84
2023/04/15 00:08:17;;;;;;;11.67;9.23;;;13.60;98.70;;;;;;12792844;23;20258;-84
2023/04/15 00:13:19;;;;;;;10.57;8.80;;;13.40;99.90;;;;;;12792649;23;20706;-84
2023/04/15 00:18:23;;;;;;;13.13;9.23;;;13.10;99.90;;;;;;12793960;23;20195;-84
2023/04/15 00:23:26;;;;;;;8.97;7.03;;;13.40;99.90;;;;;;12805561;23;20180;-83
2023/04/15 00:28:29;;;;;;;12.30;8.87;;;13.20;99.90;;;;;;12792966;23;20675;-84
2023/04/15 00:33:32;;;;;;;13.57;8.80;;;13.20;99.90;;;;;;12792151;23;20180;-84
2023/04/15 00:38:36;;;;;;;12.17;8.77;;;13.30;99.90;;;;;;12765745;23;20187;-84
2023/04/15 00:43:39;;;;;;;12.40;8.37;;;13.40;99.90;;;;;;12792985;23;20627;-83
2023/04/15 00:48:42;;;;;;;11.07;8.80;;;13.10;99.90;;;;;;12766419;23;20235;-84
2023/04/15 00:53:45;;;;;;;10.27;7.03;;;13.10;99.90;;;;;;12792802;23;20481;-84
2023/04/15 00:58:47;;;;;;;12.60;9.80;;;13.50;99.90;;;;;;12741420;23;20208;-84
2023/04/15 01:03:51;;;;;;;11.13;8.93;;;13.20;99.90;;;;;;12765076;23;20515;-84
2023/04/15 01:08:55;;;;;;;10.90;9.30;;;;;;;;;;12740917;23;20195;-84
2023/04/15 01:13:58;;;;;;;10.33;8.47;;;;;;;;;;12792414;23;20164;-84
2023/04/15 01:19:01;;;;;;;8.97;7.23;;;12.50;99.90;;;;;;12785015;23;20164;-84
2023/04/15 01:24:10;;;;;;;10.97;6.17;;;12.30;99.90;;;;;;12765431;23;20258;-84
2023/04/15 01:29:13;;;;;;;12.43;8.60;;;12.30;99.90;;;;;;12791618;23;20543;-83
2023/04/15 01:34:15;;;;;;;13.90;8.90;;;12.60;99.90;;;;;;12765197;23;20229;-84
2023/04/15 01:39:19;;;;;;;11.43;9.80;;;12.50;99.90;;;;;;12764595;23;20186;-83
2023/04/15 01:44:22;;;;;;;10.23;7.27;;;12.20;99.90;;;;;;12764321;23;20219;-84
2023/04/15 01:49:24;;;;;;;11.13;8.37;;;12.20;99.90;;;;;;12764764;23;20203;-84
2023/04/15 01:54:28;;;;;;;9.83;8.83;;;12.40;99.90;;;;;;12791652;23;20168;-84
2023/04/15 01:59:31;;;;;;;12.20;9.10;;;12.50;99.90;;;;;;12763144;23;20627;-84
2023/04/15 02:04:33;;;;;;;11.30;8.83;;;12.20;99.90;;;;;;12764064;23;20230;-84
2023/04/15 02:09:36;;;;;;;12.77;8.63;;;12.10;99.90;;;;;;12764613;23;20200;-84
2023/04/15 02:14:38;;;;;;;11.60;7.80;;;12.40;99.90;;;;;;12765041;23;20175;-84
2023/04/15 02:19:41;;;;;;;12.80;8.83;;;12.50;99.90;;;;;;12791361;23;20227;-83
2023/04/15 02:24:45;;;;;;;9.67;8.60;;;12.20;99.90;;;;;;12790905;23;20518;-84
2023/04/15 02:29:50;;;;;;;11.73;9.00;;;12.10;99.90;;;;;;12763652;23;20285;-84
2023/04/15 02:34:52;;;;;;;10.20;9.00;;;11.80;99.90;;;;;;12791184;23;20231;-84
2023/04/15 02:39:55;;;;;;;12.83;9.23;;;11.60;99.90;;;;;;12764124;23;20191;-84
2023/04/15 02:44:58;;;;;;;10.87;9.70;;;11.30;99.90;;;;;;12789547;23;20184;-84
2023/04/15 02:50:07;;;;;;;11.20;9.00;;;11.20;99.90;;;;;;12761957;23;20262;-83
2023/04/15 02:55:11;;;;;;;10.00;8.67;;;11.20;99.90;;;;;;12795154;23;20564;-83
2023/04/15 03:00:15;;;;;;;11.13;9.27;;;11.00;99.90;;;;;;12761542;23;20203;-84
2023/04/15 03:05:20;;;;;;;11.63;8.47;;;11.30;99.90;;;;;;12786639;23;20533;-83
2023/04/15 03:10:25;;;;;;;13.63;9.50;;;11.60;99.90;;;;;;12762271;23;20196;-83
2023/04/15 03:15:27;;;;;;;14.33;9.37;;;11.60;99.90;;;;;;12764599;23;20523;-83
2023/04/15 03:20:30;;;;;;;13.10;9.33;;;11.20;99.90;;;;;;12764495;23;20184;-83
2023/04/15 03:25:33;;;;;;;12.70;10.90;;;10.70;99.90;;;;;;12767022;23;20192;-83
2023/04/15 03:30:38;;;;;;;13.33;10.23;;;10.70;99.90;;;;;;12766780;23;20227;-83
2023/04/15 03:35:41;;;;;;;11.27;9.67;;;10.40;99.90;;;;;;12793878;23;20513;-83
2023/04/15 03:40:45;;;;;;;12.97;10.83;;;10.10;99.90;;;;;;12793557;23;20176;-83
2023/04/15 03:45:48;;;;;;;13.83;11.13;;;10.20;99.90;;;;;;12766582;23;20191;-83
2023/04/15 03:50:50;;;;;;;12.23;10.53;;;10.10;99.90;;;;;;12792703;23;20537;-84
2023/04/15 03:55:53;;;;;;;13.40;11.33;;;10.10;99.90;;;;;;12793017;23;20172;-84
2023/04/15 04:00:55;;;;;;;14.43;11.37;;;10.20;99.90;;;;;;12767245;23;20207;-83
2023/04/15 04:06:01;;;;;;;15.40;12.43;;;9.90;99.90;;;;;;12764588;23;20199;-84
2023/04/15 04:11:04;;;;;;;15.17;12.03;;;10.00;99.90;;;;;;12789394;23;20270;-84
2023/04/15 04:16:07;;;;;;;14.63;13.03;;;9.90;99.90;;;;;;12792246;23;20238;-84
2023/04/15 04:21:09;;;;;;;16.57;13.30;;;9.70;99.90;;;;;;12792387;23;20242;-84
2023/04/15 04:26:12;;;;;;;15.43;12.03;;;9.70;99.90;;;;;;12791925;23;20172;-84
2023/04/15 04:31:15;;;;;;;17.47;13.33;;;9.60;99.90;;;;;;12790789;23;20203;-83
2023/04/15 04:36:18;;;;;;;14.73;13.13;;;9.70;99.90;;;;;;12766844;23;20983;-84
2023/04/15 04:41:20;;;;;;;18.20;14.37;;;9.50;99.90;;;;;;12792539;23;20172;-84
2023/04/15 04:46:23;;;;;;;14.47;12.03;;;9.60;99.90;;;;;;12792582;23;20538;-83
2023/04/15 04:51:26;;;;;;;16.20;13.10;;;9.90;99.90;;;;;;12792305;23;20204;-83
2023/04/15 04:56:29;;;;;;;15.13;12.60;;;10.50;99.90;;;;;;12790747;23;20211;-83
2023/04/15 05:01:32;;;;;;;13.50;11.10;;;10.40;99.90;;;;;;12792212;23;20195;-83
2023/04/15 05:06:35;;;;;;;13.90;9.73;;;10.40;99.90;;;;;;12790045;23;20567;-83
2023/04/15 05:11:38;;;;;;;13.60;10.37;;;10.50;99.90;;;;;;12766403;23;20183;-84
2023/04/15 05:16:40;;;;;;;15.43;9.80;;;10.80;99.90;;;;;;12791713;23;20175;-84
2023/04/15 05:21:43;;;;;;;10.83;8.70;;;11.00;99.90;;;;;;12792137;23;20730;-84
2023/04/15 05:26:46;;;;;;;12.63;10.97;;;10.60;99.90;;;;;;12791516;23;20187;-84
2023/04/15 05:31:48;;;;;;;15.93;12.83;;;10.90;99.90;;;;;;12791466;23;20609;-84
2023/04/15 05:36:51;;;;;;;14.97;12.03;;;10.70;99.90;;;;;;12783563;23;20160;-83
2023/04/15 05:41:54;;;;;;;13.73;11.87;;;10.40;99.90;;;;;;12790605;23;20219;-83
2023/04/15 05:46:56;;;;;;;14.20;12.70;;;10.50;99.90;;;;;;12764896;23;20242;-83
2023/04/15 05:51:59;;;;;;;12.83;9.87;;;10.20;99.90;;;;;;12791060;23;20187;-83
2023/04/15 05:57:02;;;;;;;13.07;9.57;;;10.60;99.90;;;;;;12790849;23;20180;-83
2023/04/15 06:02:06;;;;;;;14.83;9.90;;;10.70;99.90;;;;;;12789859;23;20602;-84
2023/04/15 06:07:09;;;;;;;13.67;11.80;;;10.70;99.90;;;;;;12790830;23;20241;-83
2023/04/15 06:12:12;;;;;;;12.40;9.70;;;11.10;99.90;;;;;;12790165;23;20586;-83
2023/04/15 06:17:17;;;;;;;13.00;10.93;;;11.20;99.90;;;;;;12791209;23;20168;-83
2023/04/15 06:22:22;;;;;;;11.87;10.50;;;11.20;99.90;;;;;;12791247;23;20510;-83
2023/04/15 06:27:25;;;;;;;12.80;9.70;;;11.60;99.90;;;;;;12790373;23;20531;-83
2023/04/15 06:32:27;;;;;;;13.03;11.10;;;11.40;99.90;;;;;;12791423;23;20526;-83
2023/04/15 06:37:31;;;;;;;11.57;9.63;;;11.60;99.90;;;;;;12791634;23;20179;-84
2023/04/15 06:42:37;;;;;;;12.80;8.37;;;11.70;99.90;;;;;;12809001;23;20777;-83
2023/04/15 06:47:40;;;;;;;11.87;10.07;;;11.50;99.90;;;;;;12810440;23;20474;-83
2023/04/15 06:52:43;;;;;;;10.53;9.37;;;11.50;99.90;;;;;;12768049;23;20273;-84
2023/04/15 06:57:46;;;;;;;10.03;8.53;;;11.60;99.90;;;;;;12794703;23;20164;-83
2023/04/15 07:02:48;;;;;;;12.03;8.93;;;11.60;99.90;;;;;;12732239;23;20180;-83
2023/04/15 07:07:51;;;;;;;13.23;9.07;;;11.60;99.90;;;;;;12732259;23;20626;-83
2023/04/15 07:12:54;;;;;;;11.70;9.73;;;12.00;99.90;;;;;;12732602;23;20200;-83
2023/04/15 07:17:56;;;;;;;11.93;9.70;;;12.40;99.90;;;;;;12706883;23;20161;-83
2023/04/15 07:22:59;;;;;;;11.33;8.70;;;12.30;99.90;;;;;;12733446;23;20184;-83
2023/04/15 07:28:02;;;;;;;14.17;9.97;;;12.20;99.90;;;;;;12733157;23;20240;-83
2023/04/15 07:33:04;;;;;;;15.23;9.97;;;12.60;99.90;;;;;;12731583;23;20401;-83
2023/04/15 07:38:07;;;;;;;11.10;9.00;;;12.80;99.90;;;;;;12732344;23;20180;-83
2023/04/15 07:43:09;;;;;;;9.83;7.23;;;12.60;99.90;;;;;;12731664;23;20222;-83
2023/04/15 07:48:12;;;;;;;9.37;7.60;;;12.60;99.90;;;;;;12729397;23;20177;-89
2023/04/15 07:53:14;;;;;;;10.73;7.93;;;12.60;99.90;;;;;;12707119;23;20192;-91
2023/04/15 07:58:17;;;;;;;11.03;8.70;;;12.50;99.90;;;;;;12737937;23;20586;-91
2023/04/15 08:03:21;;;;;;;9.47;7.73;;;12.40;99.90;;;;;;12766498;23;20536;-91
2023/04/15 08:08:25;;;;;;;9.63;7.20;;;12.40;99.90;;;;;;12792495;23;20187;-89
2023/04/15 08:13:27;;;;;;;9.93;8.30;;;12.70;99.90;;;;;;12767898;23;20187;-89
2023/04/15 08:18:30;;;;;;;8.67;7.47;;;12.80;99.90;;;;;;12793690;23;20169;-89
2023/04/15 08:23:33;;;;;;;8.10;7.30;;;12.80;99.90;;;;;;12792761;23;20247;-89
2023/04/15 08:28:38;;;;;;;10.20;8.00;;;13.20;99.90;;;;;;12793447;23;20244;-89
2023/04/15 08:33:41;;;;;;;8.03;6.47;;;12.80;99.90;;;;;;12766448;23;20199;-90
2023/04/15 08:38:44;;;;;;;10.27;8.13;;;13.30;99.90;;;;;;12790398;23;20243;-89
2023/04/15 08:44:11;;;;;;;8.73;6.70;;;13.10;99.90;;;;;;12792603;23;20239;-90
2023/04/15 08:49:16;;;;;;;9.77;8.33;;;13.40;99.90;;;;;;12792465;23;20235;-90
2023/04/15 08:54:19;;;;;;;7.73;6.93;;;13.40;99.90;;;;;;12792264;23;21065;-90
2023/04/15 08:59:22;;;;;;;8.20;7.40;;;13.40;99.90;;;;;;12792897;23;20231;-90
2023/04/15 09:04:24;;;;;;;8.40;7.50;;;13.40;99.90;;;;;;12792189;23;20235;-88
2023/04/15 09:09:27;;;;;;;5.40;4.90;;;13.30;99.90;;;;;;12791827;23;20180;-89
2023/04/15 09:14:31;;;;;;;8.73;6.50;;;13.50;99.90;;;;;;12790467;23;20227;-89
2023/04/15 09:19:34;;;;;;;8.30;7.07;;;13.50;99.90;;;;;;12791967;23;20215;-90
2023/04/15 09:24:38;;;;;;;8.00;7.00;;;13.90;99.90;;;;;;12787259;23;20172;-90
2023/04/15 09:29:41;;;;;;;8.10;7.27;;;13.80;99.90;;;;;;12787692;23;20175;-89
2023/04/15 09:34:44;;;;;;;7.63;6.73;;;13.90;99.90;;;;;;12790130;23;20514;-89
2023/04/15 09:39:49;;;;;;;7.67;6.97;;;13.90;99.90;;;;;;12791347;23;20172;-90
2023/04/15 09:44:52;;;;;;;9.87;6.97;;;13.70;99.90;;;;;;12790673;23;20492;-90
2023/04/15 09:49:56;;;;;;;7.50;6.80;;;13.70;99.90;;;;;;12765368;23;20258;-90
2023/04/15 09:54:59;;;;;;;7.13;6.43;;;13.70;99.90;;;;;;12790875;23;20195;-90
2023/04/15 10:00:10;;;;;;;8.20;6.87;;;13.70;99.90;;;;;;12790145;23;20203;-90
2023/04/15 10:05:16;;;;;;;8.87;7.13;;;13.60;99.90;;;;;;12809601;23;20226;-90
2023/04/15 10:10:20;;;;;;;8.03;5.93;;;13.90;99.90;;;;;;12790799;23;20696;-89
2023/04/15 10:15:23;;;;;;;8.30;7.50;;;13.80;99.90;;;;;;12791969;23;20168;-89
2023/04/15 10:20:27;;;;;;;9.17;7.00;;;13.80;99.90;;;;;;12790318;23;20238;-89
2023/04/15 10:25:33;;;;;;;6.90;6.20;;;13.70;99.90;;;;;;12767878;23;20250;-88
2023/04/15 10:30:35;;;;;;;7.33;6.63;;;13.80;99.90;;;;;;12793702;23;20200;-89
2023/04/15 10:35:39;;;;;;;7.63;6.23;;;13.50;99.90;;;;;;12794115;23;20164;-88
2023/04/15 10:40:44;;;;;;;8.80;5.87;;;13.40;99.90;;;;;;12793345;23;20511;-89
2023/04/15 10:45:47;;;;;;;4.70;4.07;;;13.50;99.90;;;;;;12791572;23;20207;-88
2023/04/15 10:50:56;;;;;;;3.67;3.37;;;13.40;99.90;;;;;;12791567;23;20203;-89
2023/04/15 10:55:59;;;;;;;4.93;3.87;;;13.00;99.90;;;;;;12779611;23;20164;-96
2023/04/15 11:01:02;;;;;;;3.70;2.63;;;12.80;99.90;;;;;;12826943;23;20255;-96
2023/04/15 11:06:06;;;;;;;2.20;1.90;;;12.90;99.90;;;;;;12829162;23;20184;-96
2023/04/15 11:11:10;;;;;;;2.97;2.03;;;12.70;99.90;;;;;;12822675;23;20196;-96
2023/04/15 11:16:13;;;;;;;2.20;1.50;;;12.40;99.90;;;;;;12828654;23;20176;-96
2023/04/15 11:21:16;;;;;;;1.97;1.40;;;12.10;99.90;;;;;;12806818;23;20180;-96
2023/04/15 11:26:26;;;;;;;2.10;1.40;;;12.20;99.90;;;;;;12829430;23;20223;-96
2023/04/15 11:31:29;;;;;;;2.40;2.20;;;11.70;99.90;;;;;;12779238;23;20208;-96
2023/04/15 11:36:32;;;;;;;5.60;3.03;;;11.60;99.90;;;;;;12806090;23;20212;-96
2023/04/15 11:41:42;;;;;;;5.00;3.57;;;11.70;99.90;;;;;;12804564;23;20211;-96
2023/04/15 11:46:45;;;;;;;8.40;5.70;;;11.80;99.90;;;;;;12817635;23;20184;-96
2023/04/15 11:51:51;;;;;;;6.23;4.97;;;11.70;99.90;;;;;;12810505;23;20199;-95
2023/04/15 11:57:06;;;;;;;5.90;4.33;;;11.50;99.90;;;;;;12808102;23;20184;-95
2023/04/15 12:02:12;;;;;;;6.63;5.10;;;11.20;99.90;;;;;;12765204;23;20264;-91
2023/04/15 12:07:15;;;;;;;9.47;5.70;;;11.50;99.90;;;;;;12811507;23;20176;-92
2023/04/15 12:12:18;;;;;;;10.53;7.37;;;11.80;99.90;;;;;;12794103;23;20523;-91
2023/04/15 12:17:22;;;;;;;12.00;8.40;;;11.80;99.90;;;;;;12811490;23;20226;-92
2023/04/15 12:22:24;;;;;;;12.77;7.60;;;11.90;99.90;;;;;;12792766;23;20184;-90
2023/04/15 12:27:27;;;;;;;5.70;5.20;;;11.70;99.90;;;;;;12790349;23;20651;-90
2023/04/15 12:32:34;;;;;;;6.23;5.63;;;11.60;99.90;;;;;;12795968;23;20270;-91
2023/04/15 12:37:37;;;;;;;13.47;8.07;;;11.50;99.90;;;;;;12798328;23;20180;-90
2023/04/15 12:42:39;;;;;;;12.13;7.93;;;11.60;99.90;;;;;;12769671;23;20188;-89
2023/04/15 12:47:42;;;;;;;8.87;6.50;;;11.50;99.90;;;;;;12768488;23;20184;-90
2023/04/15 12:52:44;;;;;;;13.80;8.30;;;11.60;99.90;;;;;;12793958;23;20235;-89
2023/04/15 12:57:47;;;;;;;16.43;10.20;;;11.80;99.90;;;;;;12767386;23;20177;-90
2023/04/15 13:02:49;;;;;;;16.53;11.43;;;11.80;99.90;;;;;;12811601;23;20166;-90
2023/04/15 13:07:52;;;;;;;9.03;7.50;;;11.80;99.90;;;;;;12792565;23;20184;-89
2023/04/15 13:12:55;;;;;;;16.90;10.90;;;11.90;99.90;;;;;;12809169;23;20187;-90
2023/04/15 13:17:58;;;;;;;17.33;13.83;;;11.90;99.90;;;;;;12791792;23;20201;-90
2023/04/15 13:23:00;;;;;;;21.53;14.83;;;12.10;99.90;;;;;;12766627;23;20180;-90
2023/04/15 13:28:03;;;;;;;16.93;12.03;;;12.40;99.90;;;;;;12791837;23;20180;-89
2023/04/15 13:33:06;;;;;;;19.23;13.77;;;12.50;99.90;;;;;;12790575;23;20246;-88
2023/04/15 13:38:08;;;;;;;17.07;13.13;;;12.60;99.90;;;;;;12787594;23;20253;-89
2023/04/15 13:43:11;;;;;;;14.60;11.50;;;12.50;99.90;;;;;;12787262;23;20168;-89
2023/04/15 13:48:13;;;;;;;20.00;14.50;;;12.70;99.90;;;;;;12785242;23;20187;-89
2023/04/15 13:53:17;;;;;;;17.80;13.67;;;12.70;99.90;;;;;;12760617;23;20196;-90
2023/04/15 13:58:20;;;;;;;18.83;13.97;;;13.00;99.90;;;;;;12787020;23;20207;-89
2023/04/15 14:03:22;;;;;;;21.03;14.53;;;13.10;99.90;;;;;;12761007;23;20183;-89
2023/04/15 14:08:25;;;;;;;14.80;11.60;;;13.10;99.90;;;;;;12762806;23;20650;-89
2023/04/15 14:13:27;;;;;;;15.53;12.37;;;13.10;99.90;;;;;;12786726;23;20262;-89
2023/04/15 14:18:30;;;;;;;13.53;10.03;;;12.90;99.90;;;;;;12760995;23;20176;-89
2023/04/15 14:23:32;;;;;;;10.83;9.10;;;12.60;99.90;;;;;;12786239;23;20172;-90
2023/04/15 14:28:37;;;;;;;12.57;10.10;;;12.60;99.90;;;;;;12761488;23;20171;-91
2023/04/15 14:33:40;;;;;;;13.70;10.63;;;12.60;99.90;;;;;;12760895;23;20195;-91
2023/04/15 14:38:42;;;;;;;12.73;9.77;;;12.70;99.90;;;;;;12788155;23;20167;-89
2023/04/15 14:43:45;;;;;;;11.47;9.43;;;12.70;99.90;;;;;;12787967;23;20183;-89
2023/04/15 14:48:47;;;;;;;11.13;9.47;;;12.70;99.90;;;;;;12759462;23;20238;-89
2023/04/15 14:53:50;;;;;;;12.60;10.07;;;12.60;99.90;;;;;;12776040;23;20258;-89
2023/04/15 14:58:53;;;;;;;14.00;10.77;;;12.70;99.90;;;;;;12785402;23;20247;-89
2023/04/15 15:03:55;;;;;;;11.60;10.40;;;12.50;99.90;;;;;;12764399;23;20188;-89
2023/04/15 15:08:58;;;;;;;10.73;9.37;;;12.40;99.90;;;;;;12792251;23;20168;-90
2023/04/15 15:14:00;;;;;;;17.00;12.13;;;12.50;99.90;;;;;;12767149;23;20204;-89
2023/04/15 15:19:03;;;;;;;13.53;10.20;;;12.50;99.90;;;;;;12793582;23;20176;-89
2023/04/15 15:24:06;;;;;;;12.43;10.43;;;12.50;99.90;;;;;;12794054;23;20187;-89
2023/04/15 15:29:08;;;;;;;14.17;10.10;;;12.50;99.90;;;;;;12793387;23;20713;-90
2023/04/15 15:34:11;;;;;;;12.33;10.13;;;12.50;99.90;;;;;;12793819;23;20191;-89
2023/04/15 15:39:13;;;;;;;12.17;9.80;;;12.20;99.90;;;;;;12793423;23;20179;-89
2023/04/15 15:44:16;;;;;;;20.03;15.00;;;12.10;99.90;;;;;;12766963;23;20180;-89
2023/04/15 15:49:18;;;;;;;10.70;9.60;;;12.10;99.90;;;;;;12767374;23;20180;-89
2023/04/15 15:54:21;;;;;;;10.87;9.20;;;11.90;99.90;;;;;;12792774;23;20204;-89
2023/04/15 15:59:24;;;;;;;10.30;8.70;;;11.80;99.90;;;;;;12767809;23;20192;-89
2023/04/15 16:04:26;;;;;;;13.17;9.40;;;11.70;99.90;;;;;;12794366;23;20215;-89
2023/04/15 16:09:30;;;;;;;10.50;8.67;;;11.50;99.90;;;;;;12766832;23;20172;-88
2023/04/15 16:14:33;;;;;;;10.17;7.97;;;11.40;99.90;;;;;;12793090;23;20192;-88
2023/04/15 16:19:35;;;;;;;10.10;8.10;;;11.40;99.90;;;;;;12792235;23;20164;-88
2023/04/15 16:24:38;;;;;;;15.27;12.17;;;11.40;99.90;;;;;;12766425;23;20516;-90
2023/04/15 16:29:41;;;;;;;15.33;12.53;;;11.50;99.90;;;;;;12793422;23;20171;-89
2023/04/15 16:34:44;;;;;;;13.70;10.80;;;11.50;99.90;;;;;;12793263;23;20305;-89
2023/04/15 16:39:47;;;;;;;11.10;8.70;;;11.50;99.90;;;;;;12792646;23;20184;-89
2023/04/15 16:44:49;;;;;;;7.90;7.03;;;11.40;99.90;;;;;;12766740;23;20169;-89
2023/04/15 16:49:52;;;;;;;12.47;8.43;;;11.40;99.90;;;;;;12792816;23;20230;-88
2023/04/15 16:54:55;;;;;;;7.70;6.77;;;11.30;99.90;;;;;;12792931;23;20238;-89
2023/04/15 16:59:57;;;;;;;9.20;7.13;;;11.30;99.90;;;;;;12740057;23;20254;-89
2023/04/15 17:05:00;;;;;;;8.03;6.83;;;11.40;99.90;;;;;;12792371;23;20207;-89
2023/04/15 17:10:02;;;;;;;7.17;5.60;;;11.40;99.90;;;;;;12792106;23;20183;-89
2023/04/15 17:15:06;;;;;;;6.53;5.93;;;11.40;99.90;;;;;;12740386;23;20203;-89
2023/04/15 17:20:09;;;;;;;7.27;6.00;;;11.40;99.90;;;;;;12790479;23;20672;-89
2023/04/15 17:25:12;;;;;;;8.13;7.30;;;11.30;99.90;;;;;;12791170;23;20171;-89
2023/04/15 17:30:15;;;;;;;8.40;7.60;;;11.20;99.90;;;;;;12764899;23;20171;-88
2023/04/15 17:35:18;;;;;;;7.77;6.63;;;11.10;99.90;;;;;;12809342;23;20234;-88
2023/04/15 17:40:20;;;;;;;9.23;8.20;;;11.10;99.90;;;;;;12760329;23;20701;-89
2023/04/15 17:45:23;;;;;;;8.53;7.30;;;10.80;99.90;;;;;;12787924;23;20518;-88
2023/04/15 17:50:25;;;;;;;11.57;10.10;;;10.70;99.90;;;;;;12787052;23;20171;-89
2023/04/15 17:55:28;;;;;;;7.63;6.87;;;10.80;99.90;;;;;;12784367;23;20280;-88
2023/04/15 18:00:30;;;;;;;9.53;6.80;;;10.70;99.90;;;;;;12786270;23;20204;-88
2023/04/15 18:05:33;;;;;;;6.83;6.13;;;10.60;99.90;;;;;;12788046;23;20242;-88
2023/04/15 18:10:37;;;;;;;8.83;6.73;;;10.50;99.90;;;;;;12788315;23;20227;-88
2023/04/15 18:15:39;;;;;;;8.00;5.77;;;10.30;99.90;;;;;;12785620;23;20507;-88
2023/04/15 18:20:42;;;;;;;9.83;6.67;;;10.20;99.90;;;;;;12735655;23;20175;-89
2023/04/15 18:25:44;;;;;;;7.33;6.57;;;10.20;99.90;;;;;;12786216;23;20303;-88
2023/04/15 18:30:47;;;;;;;6.73;6.03;;;10.10;99.90;;;;;;12786399;23;20558;-88
2023/04/15 18:35:50;;;;;;;7.13;6.43;;;10.00;99.90;;;;;;12759677;23;20203;-88
2023/04/15 18:40:52;;;;;;;7.63;6.63;;;10.00;99.90;;;;;;12784440;23;20242;-89
2023/04/15 18:45:55;;;;;;;6.40;5.80;;;9.90;99.90;;;;;;12790322;23;20246;-88
2023/04/15 18:50:57;;;;;;;8.00;7.30;;;9.90;99.90;;;;;;12766654;23;20164;-89
2023/04/15 18:56:02;;;;;;;9.53;8.50;;;9.80;99.90;;;;;;12763762;23;20549;-89
2023/04/15 19:01:04;;;;;;;12.23;8.17;;;9.80;99.90;;;;;;12788900;23;20203;-88
2023/04/15 19:06:07;;;;;;;8.47;7.53;;;9.80;99.90;;;;;;12789693;23;20238;-87
2023/04/15 19:11:09;;;;;;;8.10;6.87;;;9.80;99.90;;;;;;12763863;23;20242;-87
2023/04/15 19:16:12;;;;;;;7.37;6.10;;;9.80;99.90;;;;;;12739015;23;20204;-87
2023/04/15 19:21:15;;;;;;;5.67;5.00;;;9.80;99.90;;;;;;12790665;23;20643;-87
2023/04/15 19:26:18;;;;;;;4.40;4.00;;;10.00;99.90;;;;;;12790877;23;20243;-88
2023/04/15 19:31:20;;;;;;;3.93;3.63;;;10.00;99.90;;;;;;12790369;23;20218;-88
2023/04/15 19:36:23;;;;;;;4.03;3.73;;;9.90;99.90;;;;;;12788729;23;20884;-88
2023/04/15 19:41:26;;;;;;;9.57;5.37;;;9.70;99.90;;;;;;12794706;23;20235;-87
2023/04/15 19:46:28;;;;;;;5.87;5.27;;;9.70;99.90;;;;;;12788225;23;20180;-88
2023/04/15 19:51:31;;;;;;;8.63;6.63;;;9.70;99.90;;;;;;12787554;23;20619;-87
2023/04/15 19:56:34;;;;;;;9.00;7.67;;;9.60;99.90;;;;;;12760093;23;20199;-88
2023/04/15 20:01:36;;;;;;;11.20;9.10;;;9.60;99.90;;;;;;12788272;23;20585;-88
2023/04/15 20:06:39;;;;;;;14.50;11.57;;;9.60;99.90;;;;;;12787437;23;20188;-88
2023/04/15 20:11:42;;;;;;;12.50;10.67;;;9.60;99.90;;;;;;12788677;23;20171;-88
2023/04/15 20:17:04;;;;;;;15.30;12.23;;;9.70;99.90;;;;;;12808729;23;20172;-88
2023/04/15 20:22:07;;;;;;;16.90;12.60;;;9.70;99.90;;;;;;12765710;23;20175;-89
2023/04/15 20:27:09;;;;;;;10.47;9.27;;;9.80;99.90;;;;;;12765114;23;20196;-90
2023/04/15 20:32:12;;;;;;;8.43;7.13;;;10.00;99.90;;;;;;12790860;23;20172;-90
2023/04/15 20:37:15;;;;;;;8.57;7.23;;;10.40;99.90;;;;;;12790794;23;20168;-91
2023/04/15 20:42:18;;;;;;;11.77;9.43;;;10.50;99.90;;;;;;12788612;23;20184;-88
2023/04/15 20:47:21;;;;;;;12.37;10.40;;;10.40;99.90;;;;;;12787511;23;20235;-87
2023/04/15 20:52:24;;;;;;;9.23;7.67;;;10.30;99.90;;;;;;12789111;23;20180;-87
2023/04/15 20:57:28;;;;;;;15.30;13.00;;;10.40;99.90;;;;;;12788315;23;20224;-88
2023/04/15 21:02:31;;;;;;;11.33;9.83;;;10.20;99.90;;;;;;12787280;23;20211;-88
2023/04/15 21:07:34;;;;;;;16.50;13.17;;;10.20;99.90;;;;;;12789613;23;20568;-88
2023/04/15 21:12:39;;;;;;;11.80;10.13;;;10.10;99.90;;;;;;12789141;23;20203;-89
2023/04/15 21:17:42;;;;;;;13.67;10.57;;;10.00;99.90;;;;;;12805789;23;20168;-89
2023/04/15 21:22:44;;;;;;;15.07;13.30;;;10.30;99.90;;;;;;12791181;23;20557;-88
2023/04/15 21:27:47;;;;;;;20.23;13.90;;;10.20;99.90;;;;;;12792989;23;20176;-89
2023/04/15 21:32:49;;;;;;;22.23;14.43;;;10.00;99.90;;;;;;12766614;23;20206;-88
2023/04/15 21:37:52;;;;;;;16.90;14.60;;;9.90;99.90;;;;;;12790586;23;20176;-88
2023/04/15 21:42:55;;;;;;;19.77;14.70;;;9.80;99.90;;;;;;12792498;23;20198;-89
2023/04/15 21:47:57;;;;;;;16.77;13.80;;;9.90;99.90;;;;;;12808613;23;20243;-88
2023/04/15 21:53:09;;;;;;;10.00;8.60;;;9.90;99.90;;;;;;12806501;23;20230;-87
2023/04/15 21:58:12;;;;;;;29.83;20.20;;;9.80;99.90;;;;;;12789691;23;20168;-88
2023/04/15 22:03:15;;;;;;;21.07;16.03;;;9.80;99.90;;;;;;12807670;23;20199;-87
2023/04/15 22:08:17;;;;;;;23.03;17.70;;;9.70;99.90;;;;;;12792006;23;20193;-88
2023/04/15 22:13:20;;;;;;;17.50;14.30;;;9.70;99.90;;;;;;12791141;23;20215;-88
2023/04/15 22:18:22;;;;;;;22.87;16.87;;;9.60;99.90;;;;;;12791387;23;20179;-88
2023/04/15 22:23:25;;;;;;;26.00;18.40;;;9.70;99.90;;;;;;12791222;23;20198;-87
2023/04/15 22:28:27;;;;;;;24.40;18.80;;;9.60;99.90;;;;;;12791626;23;20203;-87
2023/04/15 22:33:30;;;;;;;29.77;21.27;;;9.60;99.90;;;;;;12789894;23;20262;-88
2023/04/15 22:38:33;;;;;;;28.33;20.20;;;9.40;99.90;;;;;;12790266;23;20180;-90
2023/04/15 22:43:35;;;;;;;31.37;20.30;;;9.40;99.90;;;;;;12808599;23;20168;-89
2023/04/15 22:48:38;;;;;;;28.10;20.70;;;9.40;99.90;;;;;;12764656;23;20171;-88
2023/04/15 22:53:40;;;;;;;27.20;19.37;;;9.40;99.90;;;;;;12789561;23;20589;-88
2023/04/15 22:58:43;;;;;;;23.37;17.87;;;9.40;99.90;;;;;;12808785;23;20192;-88
2023/04/15 23:03:46;;;;;;;20.00;15.80;;;9.40;99.90;;;;;;12790427;23;20766;-88
2023/04/15 23:08:58;;;;;;;23.10;17.30;;;9.40;99.90;;;;;;12789411;23;20184;-88
2023/04/15 23:14:01;;;;;;;27.50;17.10;;;9.30;99.90;;;;;;12762383;23;20537;-88
2023/04/15 23:19:03;;;;;;;20.73;17.23;;;9.30;99.90;;;;;;12788908;23;20562;-89
2023/04/15 23:24:06;;;;;;;23.37;18.17;;;9.30;99.90;;;;;;12788739;23;20227;-89
2023/04/15 23:29:09;;;;;;;23.57;18.37;;;9.20;99.90;;;;;;12808782;23;20219;-89
2023/04/15 23:34:14;;;;;;;23.43;18.33;;;9.30;99.90;;;;;;12764796;23;20203;-88
2023/04/15 23:39:17;;;;;;;22.17;17.33;;;9.30;99.90;;;;;;12793112;23;20211;-88
2023/04/15 23:44:19;;;;;;;21.03;16.47;;;9.40;99.90;;;;;;12792174;23;20192;-88
2023/04/15 23:49:22;;;;;;;19.83;15.87;;;9.40;99.90;;;;;;12765951;23;20167;-88
2023/04/15 23:54:24;;;;;;;21.23;17.03;;;9.40;99.90;;;;;;12792693;23;20199;-88
2023/04/15 23:59:27;;;;;;;18.03;14.47;;;9.30;99.90;;;;;;12793814;23;20253;-88
